Hauptseite
METAR-TAF:

METAR-TAF

Flughäfen :

Nassau, Bahamas

Flughafen Nassau Lynden Pindling

Breite: 25-03N, Länge: 077-28W, Höhe: 3 m

Beobachtung

Neuester Wetterbericht von vor 29 Minuten, um 16:00 UTC
Wind 8 kt aus Nord/Nordost
Temperatur 28°C
Luftfeuchtigkeit 62%
Luftdruck 1024 hPa
Sichtweite 10 km oder mehr
Leicht bewölkt in der Höhe von 3000 ft
Durchbrochene Bewölkung in der Höhe von 22000 ft

METAR: MYNN 181600Z 03008KT 9999 FEW030 BKN220 28/20 A3024

Zeit: 11:29 (16:29 UTC)

Prognose

Neuester Wetterbericht von vor 5 Stunden und 14 Minuten, um 11:15 UTC
Gültige Prognose vom 18 um 12 UTC bis 19 um 12 UTC
Wind 4 kt aus Ost/Nordost
Sichtweite 10 km oder mehr
Leicht bewölkt in der Höhe von 2500 ft
Durchbrochene Bewölkung in der Höhe von 25000 ft
Übergehend zu
vom 18 um 18 UTC bis 18 um 20 UTC
Wind 10 kt aus Ost

TAF: MYNN 181115Z 1812/1912 06004KT 9999 FEW025 BKN250 BECMG 1818/1820 09010KT

Wetterbeobachtungen und Prognosen von mehr als 4000 Flughäfen (METAR und TAF Bericht).

Die verfügbaren Stationen werden durch gelbe und rote Markierungen auf der Karte dargestellt.

Führen Sie die Maus auf sie, um den Namen der Station zu sehen.

Darauf klicken, um die Beobachtung von Wetterbeobachtungen und Prognosen zu sehen.

Um die Karte zu ändern : klicken Sie auf den grünen Tasten mit einem schwarzen Kreuz Zum Vergrößern, auf den grünen Button mit einem Gedankenstrich zu verkleinern, oder auf die grünen Pfeile für benachbarte Karten.


METAR-TAF: